Time;durP1;ratioP1;P1;durP2;ratioP2;P2;SDS_P1;SDS_P2;PMS_P1;PMS_P2;Temp;Humidity;BMP_temperature;BMP_pressure;BME280_temperature;BME280_humidity;BME280_pressure;Samples;Min_cycle;Max_cycle;Signal;HPM_P1;HPM_P2
2021/01/24 00:05:04;;;;;;;4.17;3.10;;;;;;;;;;4996002;28;20571;-56
2021/01/24 00:07:51;;;;;;;3.53;2.07;;;;;;;;;;4996470;28;20046;-56
2021/01/24 00:10:55;;;;;;;4.03;1.90;;;;;;;;;;4993161;28;20039;-54
2021/01/24 00:13:39;;;;;;;2.80;2.30;;;;;;;;;;5029023;27;20104;-55
2021/01/24 00:16:25;;;;;;;;;;;;;;;;;;;;;
2021/01/24 00:18:57;;;;;;;2.80;1.73;;;;;;;;;;5036290;28;20124;-55
2021/01/24 00:21:36;;;;;;;3.67;2.23;;;;;;;;;;5036766;28;20459;-53
2021/01/24 00:24:18;;;;;;;4.33;1.97;;;;;;;;;;5037234;28;20097;-56
2021/01/24 00:27:02;;;;;;;2.40;1.60;;;;;;;;;;5037579;28;20463;-54
2021/01/24 00:32:58;;;;;;;3.17;1.83;;;;;;;;;;5037001;28;20037;-54
2021/01/24 00:35:44;;;;;;;;;;;;;;;;;;;;;
2021/01/24 00:38:31;;;;;;;4.37;1.93;;;;;;;;;;5032330;28;20116;-56
2021/01/24 00:41:23;;;;;;;3.80;2.07;;;;;;;;;;5036836;28;20531;-55
2021/01/24 00:47:15;;;;;;;2.73;1.60;;;;;;;;;;4995928;28;20037;-55
2021/01/24 00:49:50;;;;;;;1.87;1.40;;;;;;;;;;4995509;28;20102;-56
2021/01/24 00:52:19;;;;;;;1.90;1.20;;;;;;;;;;4995788;28;20384;-56
2021/01/24 00:55:11;;;;;;;2.80;1.30;;;;;;;;;;4995521;28;20031;-56
2021/01/24 00:58:13;;;;;;;2.50;1.43;;;;;;;;;;4994977;28;20030;-56
2021/01/24 01:00:53;;;;;;;2.00;1.30;;;;;;;;;;4995128;28;20046;-54
2021/01/24 01:03:42;;;;;;;2.53;1.53;;;;;;;;;;5001910;28;20038;-55
2021/01/24 01:06:27;;;;;;;2.80;1.90;;;;;;;;;;5037046;28;20030;-56
2021/01/24 01:09:28;;;;;;;;;;;;;;;;;;;;;
2021/01/24 01:15:06;;;;;;;3.40;2.00;;;;;;;;;;4994272;28;20046;-55
2021/01/24 01:17:54;;;;;;;2.75;1.98;;;;;;;;;;4998492;28;20436;-56
2021/01/24 01:20:29;;;;;;;3.93;2.40;;;;;;;;;;5017405;28;20038;-56
2021/01/24 01:23:11;;;;;;;2.93;1.90;;;;;;;;;;5016893;28;20022;-56
2021/01/24 01:31:40;;;;;;;2.67;1.80;;;;;;;;;;5081054;28;20044;-55
2021/01/24 01:34:15;;;;;;;2.00;1.30;;;;;;;;;;5019971;28;20030;-53
2021/01/24 01:36:48;;;;;;;3.07;1.83;;;;;;;;;;5023941;28;20034;-55
2021/01/24 01:39:16;;;;;;;1.73;1.07;;;;;;;;;;5018040;28;20034;-57
2021/01/24 01:41:46;;;;;;;5.80;2.33;;;;;;;;;;5020274;28;20038;-54
2021/01/24 01:44:44;;;;;;;2.27;1.57;;;;;;;;;;5019956;28;20034;-55
2021/01/24 01:50:22;;;;;;;3.20;2.23;;;;;;;;;;5014860;28;20359;-55
2021/01/24 01:56:16;;;;;;;2.50;1.87;;;;;;;;;;5020225;28;20037;-51
2021/01/24 01:58:50;;;;;;;3.13;2.17;;;;;;;;;;5020747;28;20036;-57
2021/01/24 02:01:49;;;;;;;1.67;1.30;;;;;;;;;;5038071;28;20518;-54
2021/01/24 02:04:49;;;;;;;2.00;1.13;;;;;;;;;;5038265;28;20447;-55
2021/01/24 02:07:37;;;;;;;1.57;1.10;;;;;;;;;;5038439;28;20040;-53
2021/01/24 02:10:29;;;;;;;2.57;1.83;;;;;;;;;;5037859;28;20033;-53
2021/01/24 02:13:19;;;;;;;1.83;1.43;;;;;;;;;;5038511;28;20037;-52
2021/01/24 02:16:19;;;;;;;1.20;0.77;;;;;;;;;;5038681;28;20044;-55
2021/01/24 02:19:02;;;;;;;2.37;1.30;;;;;;;;;;5038350;28;20041;-52
2021/01/24 02:22:13;;;;;;;1.60;0.83;;;;;;;;;;5038715;28;20045;-55
2021/01/24 02:25:02;;;;;;;1.42;0.65;;;;;;;;;;5029447;28;20491;-54
2021/01/24 02:28:02;;;;;;;1.17;0.50;;;;;;;;;;5001065;28;20125;-49
2021/01/24 02:30:37;;;;;;;0.77;0.47;;;;;;;;;;5010904;28;20034;-55
2021/01/24 02:33:10;;;;;;;2.63;0.70;;;;;;;;;;5019973;28;20093;-54
2021/01/24 02:36:05;;;;;;;0.93;0.30;;;;;;;;;;5020377;28;20033;-55
2021/01/24 02:38:39;;;;;;;1.10;0.63;;;;;;;;;;5019744;28;20034;-52
2021/01/24 02:41:43;;;;;;;;;;;;;;;;;;;;;
2021/01/24 02:44:34;;;;;;;0.43;0.20;;;;;;;;;;5018773;28;20102;-55
2021/01/24 02:47:16;;;;;;;1.40;0.50;;;;;;;;;;5020625;28;20022;-53
2021/01/24 02:50:09;;;;;;;0.40;0.20;;;;;;;;;;5020056;28;20110;-56
2021/01/24 02:56:00;;;;;;;0.10;0.07;;;;;;;;;;4979135;28;20097;-54
2021/01/24 02:58:35;;;;;;;0.53;0.20;;;;;;;;;;4979244;28;20023;-54
2021/01/24 03:01:07;;;;;;;1.03;0.60;;;;;;;;;;5005052;28;20079;-54
2021/01/24 03:06:34;;;;;;;0.47;0.20;;;;;;;;;;5037960;28;20041;-56
2021/01/24 03:09:13;;;;;;;1.60;0.70;;;;;;;;;;5038664;28;20037;-54
2021/01/24 03:15:23;;;;;;;1.43;0.40;;;;;;;;;;4960299;28;20062;-55
2021/01/24 03:18:06;;;;;;;1.60;0.87;;;;;;;;;;4959646;29;20053;-55
2021/01/24 03:23:28;;;;;;;1.23;0.80;;;;;;;;;;4948965;28;20040;-54
2021/01/24 03:26:14;;;;;;;3.97;1.27;;;;;;;;;;4941132;29;20035;-54
2021/01/24 03:31:51;;;;;;;1.80;0.87;;;;;;;;;;4940615;29;20038;-54
2021/01/24 03:34:30;;;;;;;1.63;0.83;;;;;;;;;;4940569;29;20036;-54
2021/01/24 03:40:37;;;;;;;1.60;1.03;;;;;;;;;;4985251;28;20037;-55
2021/01/24 03:43:13;;;;;;;1.85;1.23;;;;;;;;;;5017085;28;20493;-56
2021/01/24 03:45:51;;;;;;;1.90;1.40;;;;;;;;;;5000914;28;20180;-56
2021/01/24 03:48:27;;;;;;;1.53;1.07;;;;;;;;;;5016710;28;20460;-53
2021/01/24 03:51:23;;;;;;;2.50;1.47;;;;;;;;;;5017718;28;20038;-56
2021/01/24 03:54:08;;;;;;;1.97;1.40;;;;;;;;;;5000902;28;20387;-53
2021/01/24 03:56:41;;;;;;;2.80;1.57;;;;;;;;;;5021017;28;20069;-54
2021/01/24 03:59:16;;;;;;;2.23;1.53;;;;;;;;;;5019870;28;20029;-54
2021/01/24 04:01:49;;;;;;;4.70;2.07;;;;;;;;;;5019128;28;20038;-56
2021/01/24 04:04:24;;;;;;;3.77;2.40;;;;;;;;;;5019780;28;20033;-51
2021/01/24 04:09:55;;;;;;;2.10;1.30;;;;;;;;;;5019328;28;20405;-54
2021/01/24 04:19:07;;;;;;;;;;;;;;;;;;;;;
2021/01/24 04:24:44;;;;;;;2.40;1.45;;;;;;;;;;5039432;28;20137;-55
2021/01/24 04:27:35;;;;;;;2.73;1.50;;;;;;;;;;5038601;28;20040;-52
2021/01/24 04:30:24;;;;;;;2.50;1.67;;;;;;;;;;4999777;28;20030;-52
2021/01/24 04:33:18;;;;;;;2.33;1.70;;;;;;;;;;5006813;28;20040;-55
2021/01/24 04:36:18;;;;;;;4.37;2.80;;;;;;;;;;5052069;28;20469;-54
2021/01/24 04:38:55;;;;;;;2.37;1.50;;;;;;;;;;5052958;28;20033;-56
2021/01/24 04:41:48;;;;;;;2.93;1.77;;;;;;;;;;5052123;28;20054;-55
2021/01/24 04:44:25;;;;;;;2.50;1.57;;;;;;;;;;5051202;28;20041;-55
2021/01/24 04:47:12;;;;;;;3.67;2.33;;;;;;;;;;5035020;28;20033;-56
2021/01/24 04:49:53;;;;;;;3.33;2.17;;;;;;;;;;5052239;28;20160;-56
2021/01/24 04:52:37;;;;;;;2.17;1.30;;;;;;;;;;5009426;28;20073;-55
2021/01/24 04:55:27;;;;;;;2.77;1.77;;;;;;;;;;4970728;28;20030;-54
2021/01/24 04:57:59;;;;;;;3.17;1.85;;;;;;;;;;4956056;28;20492;-54
2021/01/24 05:00:50;;;;;;;2.80;1.63;;;;;;;;;;4980659;28;20417;-52
2021/01/24 05:03:26;;;;;;;3.37;1.27;;;;;;;;;;5009786;28;20030;-55
2021/01/24 05:12:11;;;;;;;2.93;1.97;;;;;;;;;;5017938;28;20174;-55
2021/01/24 05:14:49;;;;;;;2.63;1.80;;;;;;;;;;5029695;27;20525;-56
2021/01/24 05:17:32;;;;;;;3.23;1.77;;;;;;;;;;5038163;28;20034;-54
2021/01/24 05:20:34;;;;;;;;;;;;;;;;;;;;;
2021/01/24 05:23:34;;;;;;;15.60;2.10;;;;;;;;;;5037961;28;20390;-55
2021/01/24 05:26:09;;;;;;;2.77;1.70;;;;;;;;;;5036266;28;20034;-52
2021/01/24 05:28:48;;;;;;;2.93;2.50;;;;;;;;;;5038775;28;20029;-51
2021/01/24 05:31:24;;;;;;;3.13;2.23;;;;;;;;;;5036533;28;20041;-53
2021/01/24 05:33:59;;;;;;;3.17;2.20;;;;;;;;;;5036393;28;20096;-54
2021/01/24 05:36:40;;;;;;;1.87;1.50;;;;;;;;;;5036882;28;20508;-54
2021/01/24 05:39:34;;;;;;;5.03;2.53;;;;;;;;;;5038000;28;20371;-51
2021/01/24 05:45:23;;;;;;;2.23;1.20;;;;;;;;;;5021086;28;20036;-51
2021/01/24 05:47:57;;;;;;;4.80;2.67;;;;;;;;;;5037384;28;20025;-54
2021/01/24 05:54:04;;;;;;;5.43;2.53;;;;;;;;;;5037114;28;20029;-54
2021/01/24 05:57:10;;;;;;;3.67;1.83;;;;;;;;;;5039321;28;20038;-56
2021/01/24 05:59:52;;;;;;;3.17;2.60;;;;;;;;;;5135118;27;20029;-53
2021/01/24 06:02:26;;;;;;;3.77;2.43;;;;;;;;;;5037176;28;20495;-55
2021/01/24 06:08:04;;;;;;;3.60;1.90;;;;;;;;;;5036548;28;20028;-53
2021/01/24 06:10:50;;;;;;;2.60;2.00;;;;;;;;;;5036813;28;20424;-52
2021/01/24 06:13:43;;;;;;;2.80;2.00;;;;;;;;;;5036880;28;20034;-55
2021/01/24 06:16:43;;;;;;;3.03;2.33;;;;;;;;;;5054608;28;20049;-52
2021/01/24 06:19:43;;;;;;;4.87;1.83;;;;;;;;;;5074461;28;20059;-56
2021/01/24 06:28:47;;;;;;;2.43;1.73;;;;;;;;;;5092866;28;20453;-50
2021/01/24 06:31:36;;;;;;;3.77;2.80;;;;;;;;;;5108370;27;20036;-55
2021/01/24 06:34:29;;;;;;;5.20;2.37;;;;;;;;;;5025266;28;20033;-54
2021/01/24 06:37:17;;;;;;;2.73;1.73;;;;;;;;;;5060817;28;20482;-52
2021/01/24 06:40:09;;;;;;;3.13;1.97;;;;;;;;;;5035836;28;20109;-51
2021/01/24 06:42:50;;;;;;;4.03;2.90;;;;;;;;;;5053635;28;20025;-56
2021/01/24 06:45:51;;;;;;;3.45;2.17;;;;;;;;;;5035641;28;20054;-54
2021/01/24 06:54:20;;;;;;;2.80;2.13;;;;;;;;;;5073882;28;20036;-56
2021/01/24 06:56:52;;;;;;;4.20;2.70;;;;;;;;;;5038346;28;20355;-50
2021/01/24 07:03:04;;;;;;;3.53;2.43;;;;;;;;;;4991242;28;20502;-53
2021/01/24 07:05:36;;;;;;;3.63;2.07;;;;;;;;;;4975297;28;20038;-55
2021/01/24 07:08:02;;;;;;;2.93;2.17;;;;;;;;;;4995767;28;20480;-54
2021/01/24 07:17:19;;;;;;;6.07;2.40;;;;;;;;;;4991003;28;20583;-55
2021/01/24 07:20:06;;;;;;;3.73;2.70;;;;;;;;;;5009857;28;20498;-51
2021/01/24 07:23:03;;;;;;;4.10;2.23;;;;;;;;;;5012290;28;20044;-55
2021/01/24 07:25:47;;;;;;;2.70;1.90;;;;;;;;;;5011497;28;20491;-54
2021/01/24 07:28:17;;;;;;;4.13;2.10;;;;;;;;;;5011316;28;20026;-53
2021/01/24 07:30:55;;;;;;;4.17;2.60;;;;;;;;;;5011638;28;20036;-53
2021/01/24 07:33:21;;;;;;;8.43;3.13;;;;;;;;;;5013542;28;20033;-54
2021/01/24 07:39:01;;;;;;;2.50;1.57;;;;;;;;;;5072837;28;20119;-55
2021/01/24 07:41:51;;;;;;;4.00;2.47;;;;;;;;;;5014678;28;20124;-54
2021/01/24 07:44:22;;;;;;;2.53;1.73;;;;;;;;;;5012937;28;20022;-54
2021/01/24 07:53:41;;;;;;;2.77;1.67;;;;;;;;;;5012628;28;20498;-54
2021/01/24 07:56:20;;;;;;;2.80;1.90;;;;;;;;;;5010856;28;20095;-54
2021/01/24 07:58:59;;;;;;;4.53;2.60;;;;;;;;;;5013223;28;20447;-52
2021/01/24 08:01:36;;;;;;;3.03;2.20;;;;;;;;;;5011720;28;20499;-52
2021/01/24 08:07:09;;;;;;;2.37;1.63;;;;;;;;;;5072624;28;20119;-51
2021/01/24 08:09:48;;;;;;;3.13;1.93;;;;;;;;;;5061689;28;20221;-52
2021/01/24 08:12:47;;;;;;;;;;;;;;;;;;;;;
2021/01/24 08:18:24;;;;;;;4.60;1.13;;;;;;;;;;5051905;28;20094;-54
2021/01/24 08:20:56;;;;;;;2.30;1.97;;;;;;;;;;5051852;28;20041;-56
2021/01/24 08:23:35;;;;;;;4.43;2.60;;;;;;;;;;5034794;28;20033;-54
2021/01/24 08:26:31;;;;;;;2.47;1.77;;;;;;;;;;5052503;28;20442;-54
2021/01/24 08:29:23;;;;;;;;;;;;;;;;;;;;;
2021/01/24 08:32:17;;;;;;;1.93;1.23;;;;;;;;;;5051852;28;20457;-56
2021/01/24 08:35:04;;;;;;;3.67;1.67;;;;;;;;;;5033728;28;20033;-54
2021/01/24 08:41:10;;;;;;;4.77;2.10;;;;;;;;;;4990201;28;20038;-53
2021/01/24 08:47:11;;;;;;;2.23;1.57;;;;;;;;;;4993552;28;20061;-51
2021/01/24 08:50:12;;;;;;;4.03;1.70;;;;;;;;;;4970413;28;20665;-55
2021/01/24 08:53:18;;;;;;;2.53;1.55;;;;;;;;;;5011320;28;20037;-53
2021/01/24 08:55:54;;;;;;;5.97;2.60;;;;;;;;;;5032202;28;20422;-52
2021/01/24 08:58:27;;;;;;;3.80;2.00;;;;;;;;;;5027448;28;20117;-51
2021/01/24 09:01:40;;;;;;;1.93;1.30;;;;;;;;;;5028453;28;20037;-55
2021/01/24 09:04:31;;;;;;;2.23;1.33;;;;;;;;;;5051840;28;20502;-54
2021/01/24 09:07:13;;;;;;;4.85;1.95;;;;;;;;;;5052168;28;20372;-51
2021/01/24 09:09:57;;;;;;;4.20;1.47;;;;;;;;;;5015878;28;20410;-53
2021/01/24 09:12:34;;;;;;;;;;;;;;;;;;;;;
2021/01/24 09:18:28;;;;;;;4.60;1.57;;;;;;;;;;5028250;28;20523;-54
2021/01/24 09:21:44;;;;;;;3.10;2.13;;;;;;;;;;5049210;28;20497;-56
2021/01/24 09:24:22;;;;;;;4.47;3.17;;;;;;;;;;4955683;28;20485;-54
2021/01/24 09:27:23;;;;;;;2.77;1.33;;;;;;;;;;4958294;28;20046;-54
2021/01/24 09:30:10;;;;;;;3.10;1.80;;;;;;;;;;4969750;28;20110;-54
2021/01/24 09:32:51;;;;;;;3.60;1.47;;;;;;;;;;4973027;28;20038;-53
2021/01/24 09:35:53;;;;;;;2.60;1.77;;;;;;;;;;4954305;28;20035;-54
2021/01/24 09:38:46;;;;;;;2.40;1.50;;;;;;;;;;5056247;28;20074;-56
2021/01/24 09:41:34;;;;;;;;;;;;;;;;;;;;;
2021/01/24 09:44:16;;;;;;;2.73;1.90;;;;;;;;;;5050620;28;20108;-56
2021/01/24 09:47:00;;;;;;;5.60;2.63;;;;;;;;;;5051183;28;20044;-52
2021/01/24 09:49:52;;;;;;;13.83;2.43;;;;;;;;;;5032511;28;20025;-53
2021/01/24 09:52:41;;;;;;;3.80;2.13;;;;;;;;;;5033933;28;20041;-55
2021/01/24 09:58:36;;;;;;;4.30;2.33;;;;;;;;;;5054671;28;20035;-53
2021/01/24 10:01:07;;;;;;;3.20;2.20;;;;;;;;;;5053902;28;20041;-52
2021/01/24 10:04:16;;;;;;;7.83;2.47;;;;;;;;;;5032179;28;20458;-56
2021/01/24 10:06:51;;;;;;;3.00;2.17;;;;;;;;;;5054644;28;20032;-55
2021/01/24 10:09:26;;;;;;;3.07;1.33;;;;;;;;;;5036987;28;20478;-55
2021/01/24 10:11:56;;;;;;;2.90;1.53;;;;;;;;;;5036004;28;20068;-55
2021/01/24 10:14:35;;;;;;;;;;;;;;;;;;;;;
2021/01/24 10:17:01;;;;;;;4.47;2.20;;;;;;;;;;5052894;27;20055;-52
2021/01/24 10:19:55;;;;;;;7.50;2.67;;;;;;;;;;5034634;28;20080;-55
2021/01/24 10:22:36;;;;;;;2.93;1.90;;;;;;;;;;5036317;28;20435;-55
2021/01/24 10:25:21;;;;;;;3.10;1.70;;;;;;;;;;5053656;28;20029;-55
2021/01/24 10:27:56;;;;;;;2.53;1.60;;;;;;;;;;5033153;28;20061;-55
2021/01/24 10:30:46;;;;;;;2.83;1.93;;;;;;;;;;5054496;28;20029;-56
2021/01/24 10:33:33;;;;;;;4.53;2.70;;;;;;;;;;5053395;28;20070;-53
2021/01/24 10:39:03;;;;;;;3.73;1.77;;;;;;;;;;5045336;28;20375;-56
2021/01/24 10:41:37;;;;;;;4.23;2.13;;;;;;;;;;5053669;28;20472;-54
2021/01/24 10:44:31;;;;;;;2.10;1.57;;;;;;;;;;5053556;28;20029;-54
2021/01/24 10:47:09;;;;;;;2.20;1.50;;;;;;;;;;5074921;28;20039;-54
2021/01/24 10:49:49;;;;;;;2.63;1.83;;;;;;;;;;5057738;28;20031;-52
2021/01/24 10:52:32;;;;;;;5.20;1.97;;;;;;;;;;5059930;28;20040;-54
2021/01/24 10:55:24;;;;;;;1.53;1.03;;;;;;;;;;5053841;28;20040;-55
2021/01/24 10:58:15;;;;;;;2.03;1.40;;;;;;;;;;5048920;28;20033;-56
2021/01/24 11:00:54;;;;;;;1.73;1.00;;;;;;;;;;5054021;28;20029;-54
2021/01/24 11:03:23;;;;;;;3.10;1.30;;;;;;;;;;5025549;28;20478;-56
2021/01/24 11:15:19;;;;;;;7.07;1.60;;;;;;;;;;5006016;28;20066;-55
2021/01/24 11:24:43;;;;;;;1.50;0.80;;;;;;;;;;5035831;28;20394;-56
2021/01/24 11:27:23;;;;;;;1.73;0.80;;;;;;;;;;5047264;28;20038;-56
2021/01/24 11:30:13;;;;;;;2.85;1.42;;;;;;;;;;5032917;28;20026;-54
2021/01/24 11:32:59;;;;;;;3.07;1.37;;;;;;;;;;5031857;28;20038;-56
2021/01/24 11:35:46;;;;;;;;;;;;;;;;;;;;;
2021/01/24 11:38:33;;;;;;;2.00;1.13;;;;;;;;;;5032002;28;20029;-56
2021/01/24 11:41:17;;;;;;;2.80;1.50;;;;;;;;;;5036180;28;20387;-53
2021/01/24 11:43:55;;;;;;;2.23;1.23;;;;;;;;;;5032021;28;20033;-53
2021/01/24 11:46:46;;;;;;;2.97;2.47;;;;;;;;;;5031615;28;20025;-55
2021/01/24 11:49:31;;;;;;;2.87;1.10;;;;;;;;;;5032300;28;20109;-57
2021/01/24 11:54:49;;;;;;;2.37;1.13;;;;;;;;;;5024728;28;20139;-57
2021/01/24 11:57:37;;;;;;;;;;;;;;;;;;;;;
2021/01/24 12:00:25;;;;;;;;;;;;;;;;;;;;;
2021/01/24 12:03:06;;;;;;;1.73;1.20;;;;;;;;;;5032213;28;20448;-55
2021/01/24 12:08:52;;;;;;;;;;;;;;;;;;;;;
2021/01/24 12:11:57;;;;;;;3.03;1.10;;;;;;;;;;5031441;28;20047;-57
2021/01/24 12:14:44;;;;;;;1.77;1.17;;;;;;;;;;5031373;28;20013;-57
2021/01/24 12:17:23;;;;;;;2.00;1.60;;;;;;;;;;5029448;28;20495;-57
2021/01/24 12:20:13;;;;;;;1.10;0.80;;;;;;;;;;5032386;28;20033;-55
2021/01/24 12:31:59;;;;;;;4.73;1.10;;;;;;;;;;4990342;28;20592;-58
2021/01/24 12:34:48;;;;;;;1.87;1.03;;;;;;;;;;4992714;28;20031;-59
2021/01/24 12:37:21;;;;;;;2.15;1.08;;;;;;;;;;5015611;28;20111;-59
2021/01/24 12:42:56;;;;;;;2.63;1.90;;;;;;;;;;5022331;28;20384;-59
2021/01/24 12:45:46;;;;;;;3.17;1.60;;;;;;;;;;5029543;28;20053;-59
2021/01/24 12:48:25;;;;;;;;;;;;;;;;;;;;;
2021/01/24 12:54:10;;;;;;;3.63;1.70;;;;;;;;;;4989661;28;20030;-59
2021/01/24 12:57:07;;;;;;;2.27;1.40;;;;;;;;;;4990641;28;20034;-59
2021/01/24 12:59:49;;;;;;;1.90;1.17;;;;;;;;;;4962484;28;20061;-59
2021/01/24 13:02:45;;;;;;;2.07;1.27;;;;;;;;;;4973806;28;20181;-59
2021/01/24 13:05:42;;;;;;;2.77;1.10;;;;;;;;;;4990410;28;20030;-59
2021/01/24 13:08:21;;;;;;;1.40;0.90;;;;;;;;;;5002934;28;20086;-58
2021/01/24 13:11:20;;;;;;;2.43;1.43;;;;;;;;;;5030287;28;20385;-59
2021/01/24 13:14:14;;;;;;;2.90;1.60;;;;;;;;;;5107065;27;20033;-59
2021/01/24 13:16:54;;;;;;;2.97;1.30;;;;;;;;;;5027942;28;20493;-59
2021/01/24 13:19:39;;;;;;;1.60;1.13;;;;;;;;;;5031240;28;20029;-59
2021/01/24 13:22:31;;;;;;;4.00;1.40;;;;;;;;;;5031141;28;20319;-59
2021/01/24 13:25:21;;;;;;;1.83;1.17;;;;;;;;;;5031628;28;20452;-59
2021/01/24 13:28:05;;;;;;;2.07;1.03;;;;;;;;;;5052709;28;20033;-59
2021/01/24 13:30:31;;;;;;;2.10;1.47;;;;;;;;;;5034640;28;20031;-59
2021/01/24 13:33:21;;;;;;;2.83;2.10;;;;;;;;;;5032596;28;20041;-58
2021/01/24 13:36:02;;;;;;;3.03;2.03;;;;;;;;;;5034692;28;20033;-60
2021/01/24 13:38:52;;;;;;;1.85;0.98;;;;;;;;;;5033095;28;20265;-60
2021/01/24 13:41:56;;;;;;;4.67;1.13;;;;;;;;;;5032745;28;20037;-59
2021/01/24 13:44:38;;;;;;;4.73;1.70;;;;;;;;;;5095957;27;20041;-59
2021/01/24 13:47:48;;;;;;;5.00;1.87;;;;;;;;;;5032009;28;20029;-60
2021/01/24 13:50:40;;;;;;;1.87;1.13;;;;;;;;;;5034176;28;20037;-58
2021/01/24 13:53:29;;;;;;;;;;;;;;;;;;;;;
2021/01/24 13:56:31;;;;;;;1.20;0.80;;;;;;;;;;5033861;28;20428;-59
2021/01/24 13:59:09;;;;;;;2.00;1.07;;;;;;;;;;5033927;28;20078;-60
2021/01/24 14:02:04;;;;;;;1.83;1.20;;;;;;;;;;5032419;28;20128;-58
2021/01/24 14:04:40;;;;;;;;;;;;;;;;;;;;;
2021/01/24 14:07:15;;;;;;;1.87;1.30;;;;;;;;;;5034224;28;20017;-59
2021/01/24 14:15:38;;;;;;;3.53;2.30;;;;;;;;;;5034324;28;20048;-59
2021/01/24 14:18:11;;;;;;;4.43;2.00;;;;;;;;;;5092754;28;20554;-60
2021/01/24 14:20:52;;;;;;;2.43;1.03;;;;;;;;;;5113337;28;20040;-60
2021/01/24 14:23:25;;;;;;;2.57;1.60;;;;;;;;;;5116216;28;20108;-60
2021/01/24 14:32:07;;;;;;;;;;;;;;;;;;5118117;28;20400;-59
2021/01/24 14:34:53;;;;;;;;;;;;;;;;;;;;;
2021/01/24 14:37:26;;;;;;;2.10;1.00;;;;;;;;;;5112895;27;20118;-60
2021/01/24 14:43:15;;;;;;;3.13;1.57;;;;;;;;;;5116996;28;20131;-60
2021/01/24 14:45:51;;;;;;;1.73;1.00;;;;;;;;;;5116123;28;20548;-58
2021/01/24 14:48:26;;;;;;;2.07;1.13;;;;;;;;;;5115319;28;20027;-58
2021/01/24 14:51:24;;;;;;;8.50;1.50;;;;;;;;;;5110926;28;20043;-58
2021/01/24 14:53:51;;;;;;;4.63;1.60;;;;;;;;;;5116505;28;20039;-58
2021/01/24 15:02:36;;;;;;;7.30;2.17;;;;;;;;;;5110374;28;20423;-58
2021/01/24 15:05:12;;;;;;;1.70;1.10;;;;;;;;;;5116524;28;20046;-59
2021/01/24 15:08:09;;;;;;;;;;;;;;;;;;;;;
2021/01/24 15:13:51;;;;;;;3.90;0.90;;;;;;;;;;5113646;28;20027;-59
2021/01/24 15:16:55;;;;;;;2.57;1.30;;;;;;;;;;5082300;27;20056;-59
2021/01/24 15:19:45;;;;;;;1.60;1.00;;;;;;;;;;5052969;28;20037;-59
2021/01/24 15:25:26;;;;;;;1.67;0.87;;;;;;;;;;5053090;28;20031;-58
2021/01/24 15:28:05;;;;;;;;;;;;;;;;;;;;;
2021/01/24 15:31:03;;;;;;;;;;;;;;;;;;;;;
2021/01/24 15:33:57;;;;;;;;;;;;;;;;;;;;;
2021/01/24 15:36:52;;;;;;;2.37;1.13;;;;;;;;;;5052708;28;20366;-58
2021/01/24 15:39:34;;;;;;;2.50;1.13;;;;;;;;;;5051543;28;20021;-59
2021/01/24 15:42:48;;;;;;;2.00;1.20;;;;;;;;;;5032486;28;20466;-59
2021/01/24 15:45:15;;;;;;;2.03;1.07;;;;;;;;;;5047422;28;20077;-59
2021/01/24 15:48:00;;;;;;;2.90;1.50;;;;;;;;;;5051808;28;20117;-59
2021/01/24 15:54:04;;;;;;;3.37;2.07;;;;;;;;;;5052104;28;20467;-59
2021/01/24 16:00:03;;;;;;;3.83;1.63;;;;;;;;;;5051755;28;20037;-59
2021/01/24 16:02:57;;;;;;;;;;;;;;;;;;;;;
2021/01/24 16:05:35;;;;;;;1.93;1.17;;;;;;;;;;5051809;28;20039;-59
2021/01/24 16:11:33;;;;;;;3.83;2.33;;;;;;;;;;5038034;28;20041;-59
2021/01/24 16:14:03;;;;;;;13.73;10.50;;;;;;;;;;5034022;28;20470;-59
2021/01/24 16:16:50;;;;;;;7.63;5.67;;;;;;;;;;5049790;27;20037;-59
2021/01/24 16:19:29;;;;;;;3.27;2.30;;;;;;;;;;5011577;28;20061;-59
2021/01/24 16:22:24;;;;;;;4.80;2.00;;;;;;;;;;5012894;28;20041;-59
2021/01/24 16:25:18;;;;;;;;;;;;;;;;;;;;;
2021/01/24 16:27:40;;;;;;;3.43;2.03;;;;;;;;;;5010021;28;20041;-59
2021/01/24 16:30:30;;;;;;;3.80;2.03;;;;;;;;;;5011888;28;20037;-59
2021/01/24 16:33:04;;;;;;;5.57;1.95;;;;;;;;;;5010573;28;20067;-59
2021/01/24 16:35:42;;;;;;;5.23;1.87;;;;;;;;;;4995470;28;20030;-59
2021/01/24 16:38:44;;;;;;;5.53;2.03;;;;;;;;;;5012072;28;20481;-58
2021/01/24 16:41:16;;;;;;;7.00;3.90;;;;;;;;;;5010199;28;20052;-59
2021/01/24 16:43:55;;;;;;;11.93;3.60;;;;;;;;;;5011351;28;20497;-59
2021/01/24 16:49:35;;;;;;;3.20;2.27;;;;;;;;;;5042581;28;20283;-59
2021/01/24 16:52:04;;;;;;;3.40;2.17;;;;;;;;;;4990478;28;20046;-59
2021/01/24 16:54:35;;;;;;;4.20;2.17;;;;;;;;;;4989343;28;20115;-59
2021/01/24 16:57:10;;;;;;;4.03;2.70;;;;;;;;;;4990859;28;20039;-59
2021/01/24 17:02:36;;;;;;;;;;;;;;;;;;;;;
2021/01/24 17:05:02;;;;;;;5.40;2.87;;;;;;;;;;4987362;28;20040;-59
2021/01/24 17:07:34;;;;;;;4.90;4.40;;;;;;;;;;4990150;28;20038;-59
2021/01/24 17:10:48;;;;;;;5.90;4.23;;;;;;;;;;4990024;28;20424;-58
2021/01/24 17:16:16;;;;;;;6.70;4.17;;;;;;;;;;5003256;28;20116;-59
2021/01/24 17:19:02;;;;;;;4.82;2.97;;;;;;;;;;5027215;28;20141;-59
2021/01/24 17:22:09;;;;;;;7.83;3.93;;;;;;;;;;5029114;28;20040;-59
2021/01/24 17:27:27;;;;;;;5.07;2.77;;;;;;;;;;5052159;28;20087;-59
2021/01/24 17:30:04;;;;;;;8.60;5.17;;;;;;;;;;5104062;28;20034;-59
2021/01/24 17:32:32;;;;;;;4.40;2.87;;;;;;;;;;5133286;28;20031;-59
2021/01/24 17:35:18;;;;;;;8.83;3.57;;;;;;;;;;5133042;28;20084;-60
2021/01/24 17:38:29;;;;;;;5.77;3.27;;;;;;;;;;5128168;28;20032;-59
2021/01/24 17:40:45;;;;;;;8.13;4.03;;;;;;;;;;5121578;28;20027;-60
2021/01/24 17:43:16;;;;;;;5.90;3.37;;;;;;;;;;5132656;28;20420;-60
2021/01/24 17:46:03;;;;;;;5.47;4.53;;;;;;;;;;5112688;28;20682;-59
2021/01/24 17:48:48;;;;;;;;;;;;;;;;;;;;;
2021/01/24 17:51:33;;;;;;;;;;;;;;;;;;;;;
2021/01/24 17:54:25;;;;;;;5.20;3.63;;;;;;;;;;5091511;28;20028;-59
2021/01/24 17:56:54;;;;;;;6.73;3.60;;;;;;;;;;5111029;28;20028;-59
2021/01/24 17:59:39;;;;;;;3.90;2.93;;;;;;;;;;5109988;28;20024;-59
2021/01/24 18:02:14;;;;;;;4.90;3.20;;;;;;;;;;5108314;28;20499;-59
2021/01/24 18:04:57;;;;;;;6.13;4.37;;;;;;;;;;5109618;28;20428;-60
2021/01/24 18:07:49;;;;;;;5.87;3.70;;;;;;;;;;5111093;28;20024;-58
2021/01/24 18:10:26;;;;;;;5.93;3.90;;;;;;;;;;5110983;28;20066;-59
2021/01/24 18:21:50;;;;;;;7.80;5.73;;;;;;;;;;5031202;28;20037;-60
2021/01/24 18:24:20;;;;;;;9.77;8.23;;;;;;;;;;5031821;28;20112;-60
2021/01/24 18:27:24;;;;;;;12.93;9.73;;;;;;;;;;5031698;28;20029;-60
2021/01/24 18:30:02;;;;;;;13.23;10.23;;;;;;;;;;5143519;27;20100;-60
2021/01/24 18:32:39;;;;;;;12.07;8.80;;;;;;;;;;5033688;28;20352;-60
2021/01/24 18:35:11;;;;;;;9.67;7.80;;;;;;;;;;5041095;28;20099;-60
2021/01/24 18:37:52;;;;;;;10.43;7.40;;;;;;;;;;5031378;28;20535;-60
2021/01/24 18:43:45;;;;;;;8.60;5.00;;;;;;;;;;5025790;28;20125;-60
2021/01/24 18:46:24;;;;;;;5.20;3.70;;;;;;;;;;5097875;27;20431;-60
2021/01/24 18:49:00;;;;;;;3.93;3.13;;;;;;;;;;5015674;28;20535;-60
2021/01/24 18:51:49;;;;;;;3.63;2.57;;;;;;;;;;5032033;28;20534;-60
2021/01/24 18:57:38;;;;;;;6.40;3.73;;;;;;;;;;5032663;28;20087;-60
2021/01/24 19:00:11;;;;;;;5.30;3.77;;;;;;;;;;5033421;28;20094;-60
2021/01/24 19:03:15;;;;;;;5.17;4.37;;;;;;;;;;5031520;28;20105;-60
2021/01/24 19:06:00;;;;;;;5.57;4.40;;;;;;;;;;5033124;28;20033;-60
2021/01/24 19:08:58;;;;;;;6.50;4.17;;;;;;;;;;5031273;28;20044;-60
2021/01/24 19:11:39;;;;;;;5.47;4.40;;;;;;;;;;5033426;28;20451;-60
2021/01/24 19:14:27;;;;;;;9.07;4.83;;;;;;;;;;5033612;28;20033;-60
2021/01/24 19:20:07;;;;;;;11.47;4.13;;;;;;;;;;5052845;28;20066;-59
2021/01/24 19:22:59;;;;;;;11.30;7.13;;;;;;;;;;5055198;28;20056;-59
2021/01/24 19:28:37;;;;;;;5.73;5.10;;;;;;;;;;5052680;28;20032;-59
2021/01/24 19:33:59;;;;;;;6.72;5.38;;;;;;;;;;5042062;28;20112;-58
2021/01/24 19:36:39;;;;;;;7.43;5.70;;;;;;;;;;5076028;28;20455;-58
2021/01/24 19:39:08;;;;;;;8.18;4.18;;;;;;;;;;5010333;28;20026;-60
2021/01/24 19:44:55;;;;;;;6.38;5.13;;;;;;;;;;5005492;28;20473;-60
2021/01/24 19:47:40;;;;;;;8.07;5.67;;;;;;;;;;5007849;28;20065;-60
2021/01/24 19:53:07;;;;;;;6.70;5.10;;;;;;;;;;5021146;28;20034;-60
2021/01/24 19:55:33;;;;;;;8.00;5.43;;;;;;;;;;5010523;28;20058;-60
2021/01/24 19:58:05;;;;;;;7.57;4.90;;;;;;;;;;5097249;28;20038;-60
2021/01/24 20:00:42;;;;;;;7.17;4.03;;;;;;;;;;5010726;28;20038;-60
2021/01/24 20:03:29;;;;;;;7.27;4.07;;;;;;;;;;5013981;28;20099;-60
2021/01/24 20:06:22;;;;;;;;;;;;;;;;;;;;;
2021/01/24 20:09:24;;;;;;;6.93;3.70;;;;;;;;;;5051906;28;20358;-60
2021/01/24 20:12:02;;;;;;;5.67;4.27;;;;;;;;;;5070923;28;20036;-60
2021/01/24 20:14:31;;;;;;;4.70;3.93;;;;;;;;;;5051332;28;20024;-60
2021/01/24 20:17:16;;;;;;;;;;;;;;;;;;;;;
2021/01/24 20:19:44;;;;;;;7.13;4.87;;;;;;;;;;5049532;27;20056;-60
2021/01/24 20:22:10;;;;;;;7.03;4.40;;;;;;;;;;5049702;28;20505;-60
2021/01/24 20:24:43;;;;;;;9.93;6.00;;;;;;;;;;5033121;28;20482;-59
2021/01/24 20:27:15;;;;;;;8.30;4.73;;;;;;;;;;5033577;28;20021;-60
2021/01/24 20:32:52;;;;;;;9.93;6.80;;;;;;;;;;5112231;28;20027;-60
2021/01/24 20:35:24;;;;;;;7.57;6.30;;;;;;;;;;5110947;28;20027;-60
2021/01/24 20:38:19;;;;;;;7.87;6.17;;;;;;;;;;5112338;28;20030;-59
2021/01/24 20:41:14;;;;;;;;;;;;;;;;;;;;;
2021/01/24 20:43:49;;;;;;;9.60;7.27;;;;;;;;;;5112774;28;20032;-60
2021/01/24 20:49:49;;;;;;;11.17;5.87;;;;;;;;;;5090723;28;20038;-60
2021/01/24 20:52:22;;;;;;;9.67;6.37;;;;;;;;;;5095229;28;20054;-60
2021/01/24 20:55:07;;;;;;;;;;;;;;;;;;;;;
2021/01/24 21:00:50;;;;;;;10.33;5.93;;;;;;;;;;5082439;28;20056;-60
2021/01/24 21:03:25;;;;;;;;;;;;;;;;;;5051720;28;20037;-60